createdAt,value
2022-10-02T00:00:52.955Z,1.60
2022-10-02T00:03:23.653Z,1.95
2022-10-02T00:05:53.711Z,1.70
2022-10-02T00:08:24.848Z,1.83
2022-10-02T00:10:54.028Z,1.85
2022-10-02T00:13:24.312Z,2.35
2022-10-02T00:15:52.472Z,1.70
2022-10-02T00:18:22.354Z,1.55
2022-10-02T00:20:56.876Z,1.80
2022-10-02T00:23:27.502Z,2.10
2022-10-02T00:25:58.347Z,1.95
2022-10-02T00:28:28.460Z,1.77
2022-10-02T00:31:17.000Z,2.13
2022-10-02T00:33:50.524Z,1.80
2022-10-02T00:36:25.446Z,1.90
2022-10-02T00:38:57.220Z,2.13
2022-10-02T00:41:45.565Z,1.90
2022-10-02T00:44:20.824Z,2.07
2022-10-02T00:46:52.245Z,1.98
2022-10-02T00:49:34.516Z,2.00
2022-10-02T00:52:09.450Z,2.05
2022-10-02T00:54:59.484Z,1.65
2022-10-02T00:57:35.806Z,1.60
2022-10-02T01:00:07.285Z,1.67
2022-10-02T01:02:58.718Z,1.85
2022-10-02T01:05:27.328Z,1.83
2022-10-02T01:07:56.725Z,1.92
2022-10-02T01:10:25.429Z,2.10
2022-10-02T01:12:53.247Z,1.95
2022-10-02T01:15:21.592Z,2.13
2022-10-02T01:17:50.488Z,1.90
2022-10-02T01:20:19.705Z,2.20
2022-10-02T01:22:50.019Z,2.20
2022-10-02T01:25:19.016Z,2.58
2022-10-02T01:27:46.582Z,2.33
2022-10-02T01:30:15.464Z,2.50
2022-10-02T01:32:44.896Z,2.45
2022-10-02T01:35:12.391Z,1.90
2022-10-02T01:37:42.032Z,1.83
2022-10-02T01:40:11.782Z,2.60
2022-10-02T01:42:41.078Z,1.83
2022-10-02T01:45:09.539Z,2.30
2022-10-02T01:47:40.435Z,2.13
2022-10-02T01:50:12.716Z,2.13
2022-10-02T01:52:46.617Z,2.28
2022-10-02T01:55:19.385Z,1.98
2022-10-02T01:57:55.169Z,2.20
2022-10-02T02:00:25.012Z,2.40
2022-10-02T02:02:58.728Z,1.90
2022-10-02T02:05:32.020Z,1.98
2022-10-02T02:08:04.540Z,2.35
2022-10-02T02:10:36.180Z,2.20
2022-10-02T02:13:06.914Z,1.90
2022-10-02T02:15:37.697Z,2.60
2022-10-02T02:18:08.784Z,2.30
2022-10-02T02:20:38.632Z,2.00
2022-10-02T02:23:08.122Z,2.67
2022-10-02T02:25:38.539Z,1.88
2022-10-02T02:28:08.106Z,2.50
2022-10-02T02:30:37.868Z,2.30
2022-10-02T02:33:06.913Z,2.00
2022-10-02T02:35:35.648Z,2.10
2022-10-02T02:38:04.921Z,1.87
2022-10-02T02:40:33.496Z,2.03
2022-10-02T02:43:02.897Z,1.73
2022-10-02T02:45:33.423Z,2.00
2022-10-02T02:48:03.723Z,1.70
2022-10-02T02:50:33.110Z,2.10
2022-10-02T02:53:03.283Z,2.50
2022-10-02T02:55:33.473Z,2.08
2022-10-02T02:58:04.045Z,2.10
2022-10-02T03:00:32.799Z,2.20
2022-10-02T03:03:00.569Z,2.43
2022-10-02T03:05:29.524Z,2.10
2022-10-02T03:07:59.056Z,1.98
2022-10-02T03:10:32.045Z,2.25
2022-10-02T03:13:04.366Z,2.13
2022-10-02T03:15:37.318Z,2.60
2022-10-02T03:18:15.218Z,2.60
2022-10-02T03:20:43.939Z,2.15
2022-10-02T03:23:15.483Z,1.75
2022-10-02T03:25:46.452Z,1.80
2022-10-02T03:28:31.729Z,2.00
2022-10-02T03:31:06.094Z,1.98
2022-10-02T03:33:35.128Z,2.22
2022-10-02T03:36:02.890Z,2.40
2022-10-02T03:38:30.992Z,2.70
2022-10-02T03:40:59.123Z,2.20
2022-10-02T03:43:30.241Z,2.08
2022-10-02T03:45:58.018Z,1.83
2022-10-02T03:48:26.857Z,1.88
2022-10-02T03:50:54.269Z,2.30
2022-10-02T03:53:22.528Z,2.30
2022-10-02T03:55:53.366Z,1.80
2022-10-02T03:58:20.730Z,2.03
2022-10-02T04:00:53.376Z,2.17
2022-10-02T04:03:22.759Z,1.87
2022-10-02T04:05:53.443Z,2.30
2022-10-02T04:08:23.572Z,2.40
2022-10-02T04:10:54.713Z,2.00
2022-10-02T04:13:25.397Z,2.30
2022-10-02T04:15:56.725Z,2.20
2022-10-02T04:18:27.025Z,1.90
2022-10-02T04:20:57.637Z,2.50
2022-10-02T04:23:27.760Z,1.88
2022-10-02T04:25:59.089Z,2.40
2022-10-02T04:28:28.481Z,2.10
2022-10-02T04:30:56.493Z,2.63
2022-10-02T04:33:25.274Z,2.30
2022-10-02T04:35:57.785Z,2.30
2022-10-02T04:38:34.852Z,2.17
2022-10-02T04:41:10.069Z,2.40
2022-10-02T04:43:42.640Z,1.88
2022-10-02T04:46:21.667Z,2.15
2022-10-02T04:49:07.903Z,2.30
2022-10-02T04:51:42.483Z,2.15
2022-10-02T04:54:21.432Z,2.28
2022-10-02T04:56:57.061Z,2.90
2022-10-02T04:59:33.259Z,2.08
2022-10-02T05:02:05.768Z,2.27
2022-10-02T05:04:44.561Z,2.67
2022-10-02T05:07:21.191Z,3.42
2022-10-02T05:09:55.836Z,2.90
2022-10-02T05:12:36.487Z,2.80
2022-10-02T05:15:18.713Z,2.95
2022-10-02T05:17:52.261Z,2.47
2022-10-02T05:20:29.369Z,2.38
2022-10-02T05:23:05.833Z,2.40
2022-10-02T05:25:44.348Z,2.60
2022-10-02T05:28:24.623Z,2.40
2022-10-02T05:30:55.886Z,2.85
2022-10-02T05:33:35.727Z,2.40
2022-10-02T05:36:09.307Z,2.45
2022-10-02T05:38:43.348Z,2.58
2022-10-02T05:41:15.605Z,2.67
2022-10-02T05:43:47.276Z,2.58
2022-10-02T05:46:17.258Z,2.38
2022-10-02T05:48:45.944Z,2.10
2022-10-02T05:51:14.896Z,2.58
2022-10-02T05:53:44.726Z,2.20
2022-10-02T05:56:16.060Z,2.85
2022-10-02T05:58:47.548Z,2.67
2022-10-02T06:01:17.572Z,2.38
2022-10-02T06:03:49.048Z,2.53
2022-10-02T06:06:17.957Z,2.13
2022-10-02T06:08:48.315Z,2.20
2022-10-02T06:11:18.623Z,2.40
2022-10-02T06:13:48.390Z,1.88
2022-10-02T06:16:20.659Z,2.00
2022-10-02T06:18:50.142Z,2.00
2022-10-02T06:21:22.321Z,2.50
2022-10-02T06:23:51.744Z,2.25
2022-10-02T06:26:26.106Z,1.95
2022-10-02T06:28:54.752Z,2.37
2022-10-02T06:31:26.463Z,2.20
2022-10-02T06:33:54.674Z,2.20
2022-10-02T06:36:33.283Z,2.30
2022-10-02T06:39:06.739Z,2.20
2022-10-02T06:41:41.517Z,2.13
2022-10-02T06:44:16.887Z,2.13
2022-10-02T06:46:51.253Z,2.00
2022-10-02T06:49:22.777Z,2.40
2022-10-02T06:51:57.687Z,1.98
2022-10-02T06:54:32.200Z,1.70
2022-10-02T06:57:11.585Z,1.33
2022-10-02T06:59:53.464Z,1.38
2022-10-02T07:02:25.774Z,1.48
2022-10-02T07:05:10.797Z,2.20
2022-10-02T07:07:44.139Z,1.90
2022-10-02T07:10:26.730Z,1.95
2022-10-02T07:13:12.277Z,2.08
2022-10-02T07:15:52.268Z,2.10
2022-10-02T07:18:24.881Z,2.38
2022-10-02T07:20:55.377Z,2.10
2022-10-02T07:23:29.867Z,2.35
2022-10-02T07:26:07.376Z,2.28
2022-10-02T07:28:39.776Z,2.50
2022-10-02T07:31:11.347Z,2.47
2022-10-02T07:33:46.279Z,2.17
2022-10-02T07:36:18.100Z,1.80
2022-10-02T07:38:53.412Z,2.33
2022-10-02T07:41:30.113Z,2.17
2022-10-02T07:44:03.485Z,2.00
2022-10-02T07:46:34.619Z,1.90
2022-10-02T07:49:07.967Z,2.00
2022-10-02T07:51:49.702Z,1.95
2022-10-02T07:54:33.581Z,2.13
2022-10-02T07:57:07.588Z,2.30
2022-10-02T07:59:41.265Z,1.85
2022-10-02T08:02:12.843Z,2.35
2022-10-02T08:04:40.266Z,2.30
2022-10-02T08:07:07.799Z,2.03
2022-10-02T08:09:37.520Z,2.17
2022-10-02T08:12:09.158Z,2.20
2022-10-02T08:14:40.717Z,2.00
2022-10-02T08:17:11.682Z,2.40
2022-10-02T08:19:41.278Z,2.22
2022-10-02T08:22:12.402Z,2.10
2022-10-02T08:24:41.678Z,2.35
2022-10-02T08:27:13.985Z,2.72
2022-10-02T08:29:44.453Z,2.45
2022-10-02T08:32:12.631Z,2.72
2022-10-02T08:34:40.733Z,2.35
2022-10-02T08:37:13.951Z,2.35
2022-10-02T08:39:59.194Z,2.55
2022-10-02T08:42:57.518Z,2.22
2022-10-02T08:45:48.601Z,2.10
2022-10-02T08:48:30.877Z,2.33
2022-10-02T08:51:19.005Z,2.80
2022-10-02T08:53:59.810Z,2.22
2022-10-02T08:56:34.857Z,2.13
2022-10-02T08:59:19.267Z,2.83
2022-10-02T09:02:29.022Z,2.30
2022-10-02T09:05:14.079Z,2.10
2022-10-02T09:07:56.645Z,2.20
2022-10-02T09:10:45.716Z,2.17
2022-10-02T09:13:30.492Z,2.60
2022-10-02T09:16:07.556Z,2.25
2022-10-02T09:18:43.388Z,2.50
2022-10-02T09:21:18.470Z,2.17
2022-10-02T09:24:18.882Z,2.42
2022-10-02T09:26:52.871Z,2.13
2022-10-02T09:29:36.522Z,2.47
2022-10-02T09:32:21.754Z,2.30
2022-10-02T09:35:03.621Z,2.22
2022-10-02T09:37:44.018Z,2.40
2022-10-02T09:40:35.513Z,2.08
2022-10-02T09:43:18.372Z,1.92
2022-10-02T09:45:59.641Z,2.00
2022-10-02T09:48:47.579Z,2.50
2022-10-02T09:51:26.336Z,2.40
2022-10-02T09:54:07.060Z,2.00
2022-10-02T09:56:45.670Z,2.33
2022-10-02T09:59:38.233Z,1.95
2022-10-02T10:02:35.512Z,2.35
2022-10-02T10:05:12.992Z,2.10
2022-10-02T10:08:04.404Z,1.70
2022-10-02T10:13:35.590Z,1.90
2022-10-02T10:16:14.380Z,2.03
2022-10-02T10:18:56.912Z,2.20
2022-10-02T10:21:48.093Z,2.22
2022-10-02T10:24:26.580Z,2.15
2022-10-02T10:27:01.304Z,1.70
2022-10-02T10:29:45.251Z,2.10
2022-10-02T10:32:27.769Z,1.80
2022-10-02T10:35:15.312Z,1.77
2022-10-02T10:38:13.402Z,2.10
2022-10-02T10:40:48.181Z,2.00
2022-10-02T10:43:37.464Z,2.10
2022-10-02T10:46:11.434Z,1.88
2022-10-02T10:48:49.536Z,1.77
2022-10-02T10:51:35.319Z,2.22
2022-10-02T10:54:27.808Z,2.15
2022-10-02T10:56:57.707Z,1.63
2022-10-02T10:59:43.606Z,1.63
2022-10-02T11:02:24.266Z,2.20
2022-10-02T11:05:02.518Z,1.83
2022-10-02T11:07:37.599Z,1.88
2022-10-02T11:10:20.077Z,2.05
2022-10-02T11:13:03.102Z,1.92
2022-10-02T11:15:56.375Z,2.05
2022-10-02T11:18:38.799Z,2.53
2022-10-02T11:21:24.141Z,1.55
2022-10-02T11:24:04.826Z,1.70
2022-10-02T11:26:50.556Z,1.80
2022-10-02T11:29:25.691Z,2.13
2022-10-02T11:32:00.152Z,1.80
2022-10-02T11:34:40.257Z,2.03
2022-10-02T11:37:14.885Z,2.00
2022-10-02T11:40:03.201Z,1.90
2022-10-02T11:42:45.653Z,2.00
2022-10-02T11:45:21.795Z,1.70
2022-10-02T11:48:09.099Z,1.80
2022-10-02T11:50:48.080Z,2.10
2022-10-02T11:53:22.942Z,1.77
2022-10-02T11:55:57.079Z,1.92
2022-10-02T11:58:34.000Z,2.13
2022-10-02T12:01:09.210Z,2.28
2022-10-02T12:03:44.888Z,1.73
2022-10-02T12:06:17.236Z,1.88
2022-10-02T12:08:49.935Z,1.90
2022-10-02T12:11:22.594Z,1.85
2022-10-02T12:14:01.165Z,1.48
2022-10-02T12:16:36.610Z,2.00
2022-10-02T12:19:10.343Z,1.85
2022-10-02T12:22:03.713Z,1.85
2022-10-02T12:24:54.986Z,1.90
2022-10-02T12:27:30.211Z,1.90
2022-10-02T12:30:04.133Z,2.10
2022-10-02T12:32:37.447Z,2.28
2022-10-02T12:35:15.865Z,1.90
2022-10-02T12:37:46.999Z,1.92
2022-10-02T12:40:17.176Z,2.13
2022-10-02T12:43:08.463Z,1.90
2022-10-02T12:45:47.893Z,1.90
2022-10-02T12:48:21.147Z,1.90
2022-10-02T12:50:55.031Z,1.70
2022-10-02T12:53:45.335Z,2.22
2022-10-02T12:56:27.611Z,1.73
2022-10-02T12:59:01.148Z,1.88
2022-10-02T13:02:05.602Z,1.75
2022-10-02T13:04:48.875Z,2.13
2022-10-02T13:07:30.279Z,1.83
2022-10-02T13:10:03.683Z,1.80
2022-10-02T13:12:40.269Z,1.48
2022-10-02T13:15:22.551Z,2.20
2022-10-02T13:17:58.280Z,1.95
2022-10-02T13:20:29.273Z,1.80
2022-10-02T13:23:03.763Z,2.38
2022-10-02T13:25:35.577Z,1.90
2022-10-02T13:28:18.224Z,2.15
2022-10-02T13:30:51.061Z,1.70
2022-10-02T13:33:28.757Z,2.08
2022-10-02T13:36:03.141Z,1.80
2022-10-02T13:38:48.483Z,2.10
2022-10-02T13:41:22.803Z,1.55
2022-10-02T13:43:58.403Z,1.90
2022-10-02T13:46:44.660Z,1.90
2022-10-02T13:49:17.978Z,1.90
2022-10-02T13:51:47.707Z,1.98
2022-10-02T13:54:21.913Z,1.80
2022-10-02T13:56:51.773Z,1.88
2022-10-02T13:59:34.028Z,1.87
2022-10-02T14:02:17.938Z,1.80
2022-10-02T14:04:51.667Z,1.58
2022-10-02T14:07:31.748Z,1.73
2022-10-02T14:10:02.466Z,1.75
2022-10-02T14:12:33.672Z,1.88
2022-10-02T14:15:18.730Z,1.85
2022-10-02T14:17:51.689Z,1.63
2022-10-02T14:20:23.488Z,1.77
2022-10-02T14:23:02.724Z,1.55
2022-10-02T14:25:34.572Z,1.98
2022-10-02T14:28:18.208Z,1.60
2022-10-02T14:30:55.101Z,1.90
2022-10-02T14:33:26.999Z,2.03
2022-10-02T14:36:01.134Z,1.77
2022-10-02T14:38:32.339Z,1.53
2022-10-02T14:41:03.002Z,1.53
2022-10-02T14:43:43.368Z,2.00
2022-10-02T14:46:19.544Z,1.83
2022-10-02T14:48:53.753Z,1.70
2022-10-02T14:51:27.466Z,1.35
2022-10-02T14:54:01.462Z,2.10
2022-10-02T14:56:35.993Z,1.80
2022-10-02T14:59:12.296Z,2.20
2022-10-02T15:01:44.771Z,1.53
2022-10-02T15:04:29.206Z,1.48
2022-10-02T15:07:06.070Z,1.45
2022-10-02T15:09:48.156Z,2.00
2022-10-02T15:12:17.999Z,1.80
2022-10-02T15:14:52.784Z,1.60
2022-10-02T15:17:52.289Z,1.65
2022-10-02T15:22:57.212Z,1.88
2022-10-02T15:25:29.168Z,1.27
2022-10-02T15:28:31.485Z,1.60
2022-10-02T15:30:53.903Z,2.22
2022-10-02T15:33:26.471Z,1.70
2022-10-02T15:36:10.517Z,1.98
2022-10-02T15:38:49.234Z,1.73
2022-10-02T15:41:32.007Z,1.77
2022-10-02T15:44:06.729Z,1.52
2022-10-02T15:46:37.300Z,1.90
2022-10-02T15:49:11.360Z,1.67
2022-10-02T15:52:00.210Z,1.27
2022-10-02T15:54:43.734Z,1.30
2022-10-02T15:57:41.592Z,1.50
2022-10-02T16:00:13.282Z,1.58
2022-10-02T16:02:56.566Z,1.77
2022-10-02T16:05:29.262Z,1.73
2022-10-02T16:08:13.451Z,1.65
2022-10-02T16:10:55.738Z,1.88
2022-10-02T16:13:46.302Z,1.80
2022-10-02T16:16:22.274Z,1.77
2022-10-02T16:18:56.150Z,1.48
2022-10-02T16:21:41.031Z,1.90
2022-10-02T16:24:28.974Z,1.90
2022-10-02T16:27:12.065Z,1.70
2022-10-02T16:29:43.645Z,1.35
2022-10-02T16:32:15.505Z,1.83
2022-10-02T16:34:51.410Z,1.40
2022-10-02T16:37:23.491Z,1.50
2022-10-02T16:39:55.930Z,1.40
2022-10-02T16:42:32.261Z,1.50
2022-10-02T16:45:06.001Z,1.40
2022-10-02T16:47:36.734Z,1.58
2022-10-02T16:50:10.450Z,1.48
2022-10-02T16:52:41.556Z,1.52
2022-10-02T16:55:14.548Z,1.83
2022-10-02T16:58:00.489Z,1.67
2022-10-02T17:00:32.550Z,1.63
2022-10-02T17:03:03.519Z,1.50
2022-10-02T17:05:34.865Z,1.60
2022-10-02T17:08:04.588Z,1.63
2022-10-02T17:13:01.344Z,1.90
2022-10-02T17:15:35.460Z,1.70
2022-10-02T17:18:13.927Z,1.50
2022-10-02T17:20:43.704Z,1.77
2022-10-02T17:23:15.589Z,1.95
2022-10-02T17:25:45.668Z,1.33
2022-10-02T17:28:20.674Z,2.08
2022-10-02T17:30:55.998Z,1.60
2022-10-02T17:33:27.026Z,1.25
2022-10-02T17:35:56.927Z,1.52
2022-10-02T17:38:30.702Z,1.42
2022-10-02T17:41:06.438Z,1.83
2022-10-02T17:43:39.944Z,1.83
2022-10-02T17:46:24.568Z,1.90
2022-10-02T17:48:55.785Z,2.15
2022-10-02T17:54:39.781Z,1.48
2022-10-02T17:57:15.886Z,1.58
2022-10-02T18:00:10.261Z,1.98
2022-10-02T18:02:55.394Z,1.75
2022-10-02T18:05:28.808Z,1.90
2022-10-02T18:08:06.025Z,1.60
2022-10-02T18:10:37.426Z,1.40
2022-10-02T18:13:14.264Z,1.42
2022-10-02T18:15:56.073Z,1.02
2022-10-02T18:18:31.289Z,1.60
2022-10-02T18:21:05.988Z,2.25
2022-10-02T18:23:51.163Z,1.52
2022-10-02T18:26:22.902Z,1.30
2022-10-02T18:29:14.971Z,1.83
2022-10-02T18:31:56.855Z,1.13
2022-10-02T18:34:32.497Z,1.65
2022-10-02T18:37:09.661Z,1.42
2022-10-02T18:39:41.648Z,1.70
2022-10-02T18:42:25.537Z,1.45
2022-10-02T18:44:57.960Z,1.25
2022-10-02T18:47:31.352Z,1.25
2022-10-02T18:50:04.816Z,1.42
2022-10-02T18:52:45.476Z,1.30
2022-10-02T18:55:25.400Z,1.40
2022-10-02T18:57:59.058Z,0.90
2022-10-02T19:00:29.393Z,1.42
2022-10-02T19:03:07.272Z,2.10
2022-10-02T19:05:37.756Z,1.83
2022-10-02T19:08:18.177Z,1.98
2022-10-02T19:10:47.884Z,1.80
2022-10-02T19:15:46.254Z,1.70
2022-10-02T19:18:17.145Z,1.15
2022-10-02T19:20:56.209Z,1.88
2022-10-02T19:23:30.072Z,1.58
2022-10-02T19:25:59.517Z,1.73
2022-10-02T19:28:29.327Z,1.50
2022-10-02T19:30:58.426Z,2.20
2022-10-02T19:33:31.924Z,2.08
2022-10-02T19:36:03.228Z,1.73
2022-10-02T19:38:33.701Z,1.10
2022-10-02T19:41:02.996Z,1.80
2022-10-02T19:43:33.700Z,1.70
2022-10-02T19:46:02.604Z,1.67
2022-10-02T19:48:31.943Z,1.85
2022-10-02T19:51:00.081Z,1.85
2022-10-02T19:53:30.293Z,1.55
2022-10-02T19:55:59.644Z,1.70
2022-10-02T19:58:30.485Z,1.70
2022-10-02T20:00:58.831Z,1.73
2022-10-02T20:03:26.348Z,1.90
2022-10-02T20:05:54.737Z,1.80
2022-10-02T20:08:24.018Z,1.77
2022-10-02T20:10:55.460Z,1.33
2022-10-02T20:13:27.796Z,1.98
2022-10-02T20:16:15.334Z,2.35
2022-10-02T20:18:42.965Z,1.60
2022-10-02T20:21:15.074Z,2.83
2022-10-02T20:23:43.343Z,1.85
2022-10-02T20:26:12.817Z,1.95
2022-10-02T20:28:46.186Z,1.30
2022-10-02T20:31:15.728Z,1.58
2022-10-02T20:33:46.297Z,2.28
2022-10-02T20:36:16.973Z,1.88
2022-10-02T20:38:47.042Z,1.95
2022-10-02T20:41:17.218Z,1.95
2022-10-02T20:43:48.178Z,2.05
2022-10-02T20:46:30.621Z,2.08
2022-10-02T20:49:09.678Z,2.00
2022-10-02T20:51:48.218Z,1.65
2022-10-02T20:54:29.702Z,1.50
2022-10-02T20:57:18.237Z,1.27
2022-10-02T21:00:05.921Z,1.85
2022-10-02T21:02:44.423Z,2.55
2022-10-02T21:05:31.189Z,2.47
2022-10-02T21:08:16.299Z,1.60
2022-10-02T21:10:59.116Z,1.77
2022-10-02T21:13:44.500Z,2.17
2022-10-02T21:16:45.187Z,1.75
2022-10-02T21:19:25.175Z,1.73
2022-10-02T21:22:13.860Z,2.25
2022-10-02T21:24:56.225Z,2.10
2022-10-02T21:27:41.458Z,1.80
2022-10-02T21:30:15.104Z,2.10
2022-10-02T21:32:51.116Z,1.40
2022-10-02T21:35:35.681Z,1.35
2022-10-02T21:38:15.370Z,1.38
2022-10-02T21:43:30.774Z,1.33
2022-10-02T21:46:09.895Z,1.45
2022-10-02T21:49:07.145Z,1.20
2022-10-02T21:51:46.712Z,1.10
2022-10-02T21:54:33.498Z,1.17
2022-10-02T21:57:21.638Z,1.30
2022-10-02T22:00:13.855Z,1.15
2022-10-02T22:03:00.988Z,0.98
2022-10-02T22:05:37.713Z,0.82
2022-10-02T22:08:10.673Z,1.00
2022-10-02T22:10:43.166Z,1.27
2022-10-02T22:13:18.145Z,1.33
2022-10-02T22:15:51.242Z,0.98
2022-10-02T22:18:23.092Z,0.80
2022-10-02T22:21:03.712Z,0.80
2022-10-02T22:23:53.755Z,1.10
2022-10-02T22:26:31.036Z,1.40
2022-10-02T22:29:01.128Z,0.90
2022-10-02T22:31:44.103Z,1.08
2022-10-02T22:34:20.317Z,0.90
2022-10-02T22:37:07.505Z,1.25
2022-10-02T22:39:39.751Z,1.30
2022-10-02T22:42:08.638Z,0.88
2022-10-02T22:44:39.880Z,0.80
2022-10-02T22:47:08.802Z,1.45
2022-10-02T22:49:37.986Z,0.90
2022-10-02T22:52:08.796Z,1.00
2022-10-02T22:54:40.914Z,1.40
2022-10-02T22:57:13.345Z,0.75
2022-10-02T22:59:44.010Z,1.10
2022-10-02T23:02:14.609Z,1.08
2022-10-02T23:04:46.376Z,0.98
2022-10-02T23:07:16.377Z,1.00
2022-10-02T23:09:48.286Z,0.75
2022-10-02T23:12:17.965Z,1.00
2022-10-02T23:17:16.263Z,0.90
2022-10-02T23:19:45.565Z,1.13
2022-10-02T23:22:18.074Z,0.70
2022-10-02T23:24:49.689Z,1.30
2022-10-02T23:27:19.954Z,1.05
2022-10-02T23:29:53.365Z,1.38
2022-10-02T23:32:25.096Z,1.00
2022-10-02T23:34:55.893Z,1.10
2022-10-02T23:37:25.914Z,1.00
2022-10-02T23:39:58.897Z,0.80
2022-10-02T23:42:27.785Z,1.20
2022-10-02T23:44:57.961Z,1.23
2022-10-02T23:47:29.921Z,1.17
2022-10-02T23:49:58.416Z,0.73
2022-10-02T23:52:44.371Z,1.10
2022-10-02T23:55:20.747Z,0.70
2022-10-02T23:57:56.098Z,0.95
